createdAt,value
2023-03-06T00:00:33.386Z,665.6
2023-03-06T00:01:35.621Z,665.6
2023-03-06T00:02:38.116Z,665.5
2023-03-06T00:03:40.948Z,665.6
2023-03-06T00:04:42.947Z,665.8
2023-03-06T00:05:45.841Z,665.4
2023-03-06T00:06:48.087Z,665.9
2023-03-06T00:07:50.040Z,665.8
2023-03-06T00:08:52.308Z,666.1
2023-03-06T00:09:54.538Z,666.4
2023-03-06T00:10:57.137Z,666.6
2023-03-06T00:11:59.657Z,666.4
2023-03-06T00:13:02.172Z,666.3
2023-03-06T00:14:04.661Z,666.8
2023-03-06T00:15:07.892Z,666.5
2023-03-06T00:16:09.982Z,666.4
2023-03-06T00:17:12.487Z,666.6
2023-03-06T00:18:15.005Z,666.9
2023-03-06T00:19:16.941Z,666.8
2023-03-06T00:20:19.452Z,666.9
2023-03-06T00:21:21.683Z,667.2
2023-03-06T00:22:23.907Z,667.4
2023-03-06T00:23:26.413Z,667.2
2023-03-06T00:24:28.930Z,667.3
2023-03-06T00:25:31.801Z,667.4
2023-03-06T00:26:34.031Z,667.4
2023-03-06T00:27:36.231Z,667.4
2023-03-06T00:28:38.596Z,667.3
2023-03-06T00:29:40.802Z,667.6
2023-03-06T00:30:43.081Z,667.4
2023-03-06T00:31:45.373Z,667.6
2023-03-06T00:32:47.944Z,667.9
2023-03-06T00:33:50.633Z,668.2
2023-03-06T00:34:53.131Z,668.4
2023-03-06T00:35:55.576Z,668.4
2023-03-06T00:36:58.157Z,668.7
2023-03-06T00:38:00.451Z,668.5
2023-03-06T00:39:02.670Z,668.6
2023-03-06T00:40:04.900Z,668.9
2023-03-06T00:41:06.602Z,669.8
2023-03-06T00:42:08.837Z,669.1
2023-03-06T00:43:11.586Z,669.5
2023-03-06T00:44:13.825Z,669.5
2023-03-06T00:45:16.073Z,669.7
2023-03-06T00:46:18.710Z,669.6
2023-03-06T00:47:20.964Z,669.9
2023-03-06T00:48:23.453Z,670.1
2023-03-06T00:49:25.972Z,670.2
2023-03-06T00:50:28.237Z,669.9
2023-03-06T00:51:30.449Z,670.6
2023-03-06T00:52:32.692Z,670.8
2023-03-06T00:53:34.996Z,670.9
2023-03-06T00:54:37.500Z,670.5
2023-03-06T00:55:40.016Z,671.1
2023-03-06T00:56:41.999Z,671
2023-03-06T00:57:44.231Z,671.5
2023-03-06T00:58:46.435Z,671.3
2023-03-06T00:59:48.932Z,671.7
2023-03-06T01:00:51.554Z,671.6
2023-03-06T01:01:54.504Z,671.6
2023-03-06T01:02:57.115Z,671.9
2023-03-06T01:03:59.634Z,671.5
2023-03-06T01:05:02.178Z,672.1
2023-03-06T01:06:04.683Z,671.9
2023-03-06T01:07:06.642Z,672
2023-03-06T01:08:09.193Z,672.3
2023-03-06T01:09:11.127Z,672.5
2023-03-06T01:10:13.699Z,672.9
2023-03-06T01:11:16.276Z,672.6
2023-03-06T01:12:18.538Z,673
2023-03-06T01:13:21.089Z,672.9
2023-03-06T01:14:23.392Z,673.1
2023-03-06T01:15:25.627Z,673.2
2023-03-06T01:16:28.104Z,673.3
2023-03-06T01:17:30.453Z,673.7
2023-03-06T01:18:32.937Z,673.6
2023-03-06T01:19:35.154Z,673.8
2023-03-06T01:20:37.662Z,673.4
2023-03-06T01:21:40.164Z,674.1
2023-03-06T01:22:42.744Z,673.9
2023-03-06T01:23:44.765Z,674.4
2023-03-06T01:24:47.276Z,673.9
2023-03-06T01:25:49.795Z,674.2
2023-03-06T01:26:52.037Z,674.8
2023-03-06T01:27:54.606Z,674.8
2023-03-06T01:28:56.860Z,675.2
2023-03-06T01:29:59.409Z,675.5
2023-03-06T01:31:01.944Z,675.4
2023-03-06T01:32:05.364Z,675.6
2023-03-06T01:33:08.109Z,676
2023-03-06T01:34:10.596Z,675.9
2023-03-06T01:35:13.179Z,676.1
2023-03-06T01:36:15.751Z,676.2
2023-03-06T01:37:18.008Z,676.8
2023-03-06T01:38:20.598Z,676.6
2023-03-06T01:39:23.098Z,677.3
2023-03-06T01:40:25.334Z,677.4
2023-03-06T01:41:27.830Z,677.9
2023-03-06T01:43:36.471Z,677.9
2023-03-06T01:44:38.702Z,678.4
2023-03-06T01:45:41.348Z,678.3
2023-03-06T01:46:43.980Z,678.8
2023-03-06T01:47:46.236Z,679
2023-03-06T01:48:48.833Z,679.5
2023-03-06T01:49:51.044Z,679.5
2023-03-06T01:50:53.254Z,680
2023-03-06T01:51:55.189Z,679.9
2023-03-06T01:52:57.670Z,680.1
2023-03-06T01:53:59.887Z,680.3
2023-03-06T01:55:02.390Z,680.4
2023-03-06T01:56:04.589Z,680.4
2023-03-06T01:57:06.788Z,680.5
2023-03-06T01:58:09.080Z,680.6
2023-03-06T01:59:11.328Z,680.9
2023-03-06T02:00:13.552Z,681.1
2023-03-06T02:01:16.212Z,680.6
2023-03-06T02:02:18.831Z,681
2023-03-06T02:03:21.344Z,680.9
2023-03-06T02:04:23.997Z,680.9
2023-03-06T02:05:26.210Z,681.1
2023-03-06T02:06:27.882Z,681.3
2023-03-06T02:07:30.371Z,681.8
2023-03-06T02:08:32.895Z,681.3
2023-03-06T02:09:35.092Z,681.8
2023-03-06T02:10:37.304Z,681.7
2023-03-06T02:11:40.282Z,681.3
2023-03-06T02:12:42.811Z,681.4
2023-03-06T02:13:45.310Z,681.6
2023-03-06T02:14:47.559Z,682.1
2023-03-06T02:15:50.085Z,682.6
2023-03-06T02:16:52.951Z,682.5
2023-03-06T02:17:54.968Z,682.9
2023-03-06T02:18:57.547Z,683
2023-03-06T02:19:59.859Z,683.2
2023-03-06T02:21:02.098Z,683
2023-03-06T02:22:04.596Z,683.2
2023-03-06T02:23:06.542Z,683.1
2023-03-06T02:24:08.483Z,683
2023-03-06T02:25:10.693Z,682.9
2023-03-06T02:26:13.200Z,683
2023-03-06T02:27:15.734Z,683.4
2023-03-06T02:28:17.981Z,683.5
2023-03-06T02:29:20.499Z,683.7
2023-03-06T02:30:23.017Z,683.7
2023-03-06T02:31:25.508Z,683.7
2023-03-06T02:32:28.356Z,683.7
2023-03-06T02:33:30.621Z,683.6
2023-03-06T02:34:33.107Z,684
2023-03-06T02:35:35.930Z,684
2023-03-06T02:36:38.142Z,684.1
2023-03-06T02:37:40.356Z,684.5
2023-03-06T02:38:42.552Z,684.7
2023-03-06T02:39:44.795Z,685.4
2023-03-06T02:40:46.718Z,685.1
2023-03-06T02:41:49.212Z,685
2023-03-06T02:42:51.717Z,685.2
2023-03-06T02:43:54.230Z,685
2023-03-06T02:44:56.173Z,684.7
2023-03-06T02:45:58.853Z,685.3
2023-03-06T02:47:01.397Z,685.2
2023-03-06T02:48:03.634Z,685.2
2023-03-06T02:49:06.109Z,685.1
2023-03-06T02:50:08.316Z,685.6
2023-03-06T02:51:10.922Z,685.5
2023-03-06T02:52:13.150Z,685.4
2023-03-06T02:53:15.096Z,685.7
2023-03-06T02:54:17.600Z,686.1
2023-03-06T02:55:20.080Z,686
2023-03-06T02:56:22.588Z,685.9
2023-03-06T02:57:24.826Z,686.3
2023-03-06T02:58:27.051Z,685.7
2023-03-06T02:59:29.302Z,686.1
2023-03-06T03:00:31.524Z,685.7
2023-03-06T03:01:34.061Z,685.9
2023-03-06T03:02:36.614Z,686.1
2023-03-06T03:03:39.112Z,686.1
2023-03-06T03:04:41.405Z,687.1
2023-03-06T03:05:43.954Z,687
2023-03-06T03:06:46.595Z,687.5
2023-03-06T03:07:49.131Z,687.4
2023-03-06T03:08:51.652Z,686.8
2023-03-06T03:09:53.890Z,687
2023-03-06T03:10:55.827Z,686.8
2023-03-06T03:11:58.357Z,687
2023-03-06T03:13:00.872Z,687.1
2023-03-06T03:14:03.353Z,687.8
2023-03-06T03:15:05.578Z,687.4
2023-03-06T03:16:08.499Z,687.6
2023-03-06T03:17:10.753Z,688.1
2023-03-06T03:18:13.275Z,688.1
2023-03-06T03:19:15.216Z,688.3
2023-03-06T03:20:17.424Z,688.2
2023-03-06T03:21:19.717Z,687.8
2023-03-06T03:22:22.163Z,688.3
2023-03-06T03:23:23.874Z,688
2023-03-06T03:24:26.060Z,688
2023-03-06T03:25:28.086Z,688.1
2023-03-06T03:26:30.001Z,688
2023-03-06T03:27:32.524Z,688.3
2023-03-06T03:28:34.736Z,688.3
2023-03-06T03:29:37.205Z,688.2
2023-03-06T03:30:39.457Z,688.3
2023-03-06T03:31:41.972Z,688.3
2023-03-06T03:32:44.482Z,688.1
2023-03-06T03:33:46.963Z,688.6
2023-03-06T03:34:49.469Z,687.5
2023-03-06T03:35:52.172Z,688.3
2023-03-06T03:36:54.681Z,687.8
2023-03-06T03:37:57.272Z,688.2
2023-03-06T03:38:59.514Z,689.1
2023-03-06T03:40:01.766Z,688.9
2023-03-06T03:41:04.341Z,688.8
2023-03-06T03:42:06.833Z,689.2
2023-03-06T03:43:09.042Z,689.4
2023-03-06T03:44:11.532Z,689.2
2023-03-06T03:45:14.108Z,689
2023-03-06T03:46:16.489Z,689.7
2023-03-06T03:47:18.989Z,689.4
2023-03-06T03:48:21.515Z,689.2
2023-03-06T03:49:24.121Z,689.2
2023-03-06T03:50:26.252Z,689.1
2023-03-06T03:51:28.756Z,689.5
2023-03-06T03:52:30.972Z,689.5
2023-03-06T03:53:33.583Z,689.4
2023-03-06T03:54:35.823Z,689.6
2023-03-06T03:55:38.324Z,689.5
2023-03-06T03:56:40.255Z,689.2
2023-03-06T03:57:42.823Z,689.1
2023-03-06T03:58:45.064Z,689.3
2023-03-06T03:59:47.709Z,689.1
2023-03-06T04:00:50.031Z,689.2
2023-03-06T04:01:52.320Z,689.5
2023-03-06T04:02:54.590Z,689.3
2023-03-06T04:03:56.846Z,689.7
2023-03-06T04:04:59.527Z,690
2023-03-06T04:06:01.773Z,689.8
2023-03-06T04:07:04.265Z,690.1
2023-03-06T04:08:06.749Z,690.6
2023-03-06T04:09:09.404Z,690.6
2023-03-06T04:10:11.914Z,690.5
2023-03-06T04:11:13.856Z,690.4
2023-03-06T04:12:15.778Z,690.8
2023-03-06T04:13:18.302Z,691.2
2023-03-06T04:14:20.506Z,691.3
2023-03-06T04:15:22.710Z,691.5
2023-03-06T04:16:25.442Z,691.8
2023-03-06T04:17:27.957Z,691.7
2023-03-06T04:18:30.177Z,692
2023-03-06T04:19:32.452Z,692
2023-03-06T04:20:34.659Z,691.8
2023-03-06T04:21:36.868Z,691.7
2023-03-06T04:22:38.810Z,692.4
2023-03-06T04:23:41.320Z,692.5
2023-03-06T04:24:43.706Z,692.4
2023-03-06T04:25:46.244Z,692.4
2023-03-06T04:26:48.807Z,692.7
2023-03-06T04:27:51.034Z,692.5
2023-03-06T04:28:53.549Z,692.9
2023-03-06T04:29:55.747Z,692.9
2023-03-06T04:30:57.400Z,692.2
2023-03-06T04:31:59.996Z,692.6
2023-03-06T04:33:02.487Z,692.6
2023-03-06T04:34:05.010Z,692.5
2023-03-06T04:35:07.595Z,692
2023-03-06T04:36:09.883Z,692.1
2023-03-06T04:37:12.415Z,692.2
2023-03-06T04:38:14.949Z,692
2023-03-06T04:39:17.457Z,691.4
2023-03-06T04:40:21.050Z,692
2023-03-06T04:41:23.972Z,691.5
2023-03-06T04:42:26.773Z,691.9
2023-03-06T04:43:29.099Z,692
2023-03-06T04:44:31.601Z,692
2023-03-06T04:45:34.440Z,692.1
2023-03-06T04:46:36.943Z,692.1
2023-03-06T04:47:39.468Z,692.3
2023-03-06T04:48:41.969Z,692.2
2023-03-06T04:49:44.476Z,692
2023-03-06T04:50:47.000Z,692.1
2023-03-06T04:51:49.686Z,692.6
2023-03-06T04:52:52.211Z,692.8
2023-03-06T04:53:54.724Z,692.6
2023-03-06T04:54:57.207Z,692.6
2023-03-06T04:55:59.782Z,693
2023-03-06T04:57:01.770Z,692.9
2023-03-06T04:58:04.295Z,693.1
2023-03-06T04:59:06.505Z,692.6
2023-03-06T05:00:08.728Z,692.6
2023-03-06T05:01:11.647Z,692.8
2023-03-06T05:02:14.427Z,693.1
2023-03-06T05:03:16.625Z,692.7
2023-03-06T05:04:19.136Z,693.1
2023-03-06T05:05:21.362Z,692.6
2023-03-06T05:06:23.873Z,692.9
2023-03-06T05:07:26.355Z,693.2
2023-03-06T05:08:28.850Z,693
2023-03-06T05:09:31.073Z,693.9
2023-03-06T05:10:33.295Z,693.6
2023-03-06T05:11:35.877Z,693.5
2023-03-06T05:12:38.136Z,693.5
2023-03-06T05:13:40.363Z,693
2023-03-06T05:14:42.582Z,693.2
2023-03-06T05:15:45.102Z,693.9
2023-03-06T05:16:47.946Z,693.4
2023-03-06T05:17:50.455Z,693.8
2023-03-06T05:18:52.977Z,693.9
2023-03-06T05:19:55.496Z,694
2023-03-06T05:20:57.978Z,694.1
2023-03-06T05:22:00.490Z,694.1
2023-03-06T05:23:03.027Z,694.2
2023-03-06T05:24:05.314Z,694.3
2023-03-06T05:25:07.857Z,694.1
2023-03-06T05:26:10.062Z,694.6
2023-03-06T05:27:12.403Z,694.9
2023-03-06T05:28:14.912Z,694.5
2023-03-06T05:29:17.438Z,694.3
2023-03-06T05:30:19.945Z,694.3
2023-03-06T05:31:22.714Z,694.3
2023-03-06T05:32:25.582Z,694.5
2023-03-06T05:33:27.522Z,695.2
2023-03-06T05:34:30.072Z,694.9
2023-03-06T05:35:32.848Z,695.2
2023-03-06T05:36:35.143Z,695.5
2023-03-06T05:37:38.564Z,695
2023-03-06T05:38:41.205Z,695.4
2023-03-06T05:39:43.711Z,695.7
2023-03-06T05:40:45.982Z,695.9
2023-03-06T05:41:48.235Z,695.6
2023-03-06T05:42:50.878Z,695.2
2023-03-06T05:43:52.846Z,694.9
2023-03-06T05:44:54.242Z,695.4
2023-03-06T05:45:56.642Z,695.3
2023-03-06T05:46:58.840Z,695.1
2023-03-06T05:48:01.332Z,695.4
2023-03-06T05:49:03.297Z,694.8
2023-03-06T05:50:05.274Z,694.8
2023-03-06T05:51:07.802Z,694.9
2023-03-06T05:52:10.301Z,694.4
2023-03-06T05:53:13.108Z,694.3
2023-03-06T05:54:15.317Z,694.2
2023-03-06T05:55:17.818Z,694.1
2023-03-06T05:56:20.066Z,694.5
2023-03-06T05:57:22.588Z,694.2
2023-03-06T05:58:25.180Z,694.3
2023-03-06T05:59:27.675Z,694.1
2023-03-06T06:00:29.894Z,694
2023-03-06T06:01:32.394Z,693.5
2023-03-06T06:02:34.988Z,694.1
2023-03-06T06:03:37.505Z,694.1
2023-03-06T06:04:39.470Z,693.9
2023-03-06T06:05:41.701Z,693.8
2023-03-06T06:06:43.987Z,693.5
2023-03-06T06:07:46.513Z,693.6
2023-03-06T06:08:49.014Z,693.5
2023-03-06T06:09:51.512Z,693.6
2023-03-06T06:10:55.208Z,693.6
2023-03-06T06:11:57.711Z,693.6
2023-03-06T06:13:00.189Z,693.7
2023-03-06T06:14:02.860Z,693.9
2023-03-06T06:15:05.346Z,693.5
2023-03-06T06:16:07.805Z,694
2023-03-06T06:17:10.346Z,693.8
2023-03-06T06:18:12.654Z,693.5
2023-03-06T06:19:14.907Z,693.5
2023-03-06T06:20:17.400Z,693.5
2023-03-06T06:21:19.648Z,693.6
2023-03-06T06:22:22.148Z,693.6
2023-03-06T06:23:24.652Z,693.4
2023-03-06T06:24:27.192Z,693.1
2023-03-06T06:25:29.420Z,693
2023-03-06T06:26:31.932Z,692.5
2023-03-06T06:27:34.464Z,692.6
2023-03-06T06:28:36.721Z,692.4
2023-03-06T06:29:39.322Z,692.5
2023-03-06T06:30:41.826Z,692.4
2023-03-06T06:31:43.784Z,692.2
2023-03-06T06:32:46.028Z,692.1
2023-03-06T06:33:48.538Z,692.1
2023-03-06T06:34:51.061Z,692.2
2023-03-06T06:35:53.892Z,692
2023-03-06T06:36:56.442Z,692.1
2023-03-06T06:37:58.963Z,692.1
2023-03-06T06:39:01.454Z,691.8
2023-03-06T06:40:03.739Z,692
2023-03-06T06:43:16.186Z,692
2023-03-06T06:44:18.701Z,691.9
2023-03-06T06:45:21.295Z,691.7
2023-03-06T06:47:29.253Z,692.1
2023-03-06T06:48:31.223Z,692.1
2023-03-06T06:49:33.203Z,691.7
2023-03-06T06:50:35.426Z,692
2023-03-06T06:51:38.013Z,692.3
2023-03-06T06:52:39.968Z,691.9
2023-03-06T06:53:42.529Z,691.9
2023-03-06T06:54:44.473Z,692.1
2023-03-06T06:55:47.024Z,691.8
2023-03-06T06:56:49.295Z,691.9
2023-03-06T06:57:51.799Z,691.8
2023-03-06T07:00:02.036Z,691.9
2023-03-06T07:01:04.622Z,691.7
2023-03-06T07:02:07.165Z,691.4
2023-03-06T07:03:09.653Z,691.6
2023-03-06T07:04:12.089Z,691.9
2023-03-06T07:05:14.649Z,691.9
2023-03-06T07:06:16.594Z,692
2023-03-06T07:07:19.103Z,692.2
2023-03-06T07:08:21.027Z,692.3
2023-03-06T07:09:23.537Z,691.9
2023-03-06T07:10:26.132Z,692.1
2023-03-06T07:11:28.706Z,692.3
2023-03-06T07:12:31.259Z,692
2023-03-06T07:13:33.813Z,692.1
2023-03-06T07:14:36.319Z,692.2
2023-03-06T07:15:38.927Z,691.8
2023-03-06T07:16:41.536Z,691.8
2023-03-06T07:17:43.900Z,691.9
2023-03-06T07:18:46.176Z,692
2023-03-06T07:19:48.937Z,691.9
2023-03-06T07:20:51.188Z,692.5
2023-03-06T07:21:53.686Z,692.5
2023-03-06T07:22:56.263Z,692.5
2023-03-06T07:23:58.808Z,692.6
2023-03-06T07:25:01.084Z,692.5
2023-03-06T07:26:03.334Z,692.4
2023-03-06T07:27:05.609Z,692.6
2023-03-06T07:28:08.003Z,692.5
2023-03-06T07:29:10.614Z,692.8
2023-03-06T07:30:12.860Z,692.8
2023-03-06T07:31:15.369Z,692.9
2023-03-06T07:32:18.246Z,692.9
2023-03-06T07:33:20.813Z,692.5
2023-03-06T07:34:23.057Z,692.4
2023-03-06T07:35:25.114Z,692.1
2023-03-06T07:36:27.652Z,692
2023-03-06T07:37:29.876Z,691.7
2023-03-06T07:38:32.377Z,691.8
2023-03-06T07:39:34.637Z,691.8
2023-03-06T07:40:37.162Z,691.6
2023-03-06T07:41:39.725Z,692.1
2023-03-06T07:42:42.298Z,691.5
2023-03-06T07:43:44.846Z,691.9
2023-03-06T07:44:47.360Z,691.8
2023-03-06T07:45:49.905Z,692.2
2023-03-06T07:46:51.882Z,692
2023-03-06T07:47:54.557Z,691.5
2023-03-06T07:48:57.064Z,691.6
2023-03-06T07:49:59.328Z,691.6
2023-03-06T07:51:01.608Z,691.4
2023-03-06T07:52:03.566Z,691.3
2023-03-06T07:53:05.221Z,691.3
2023-03-06T07:54:07.483Z,691
2023-03-06T07:55:10.014Z,691.2
2023-03-06T07:56:12.591Z,691.3
2023-03-06T07:57:14.542Z,691.1
2023-03-06T07:58:16.812Z,691.2
2023-03-06T07:59:19.495Z,691.3
2023-03-06T08:00:22.009Z,691.1
2023-03-06T08:01:24.668Z,691.1
2023-03-06T08:02:26.384Z,690.9
2023-03-06T08:03:29.323Z,690.8
2023-03-06T08:04:32.076Z,691
2023-03-06T08:05:34.343Z,691
2023-03-06T08:06:36.879Z,691
2023-03-06T08:07:39.434Z,690.5
2023-03-06T08:08:41.939Z,690.8
2023-03-06T08:09:43.803Z,690.9
2023-03-06T08:10:46.322Z,690.8
2023-03-06T08:11:48.867Z,690.9
2023-03-06T08:12:50.864Z,690.8
2023-03-06T08:13:53.238Z,690.9
2023-03-06T08:14:55.783Z,690.7
2023-03-06T08:15:58.404Z,690.4
2023-03-06T08:17:00.992Z,690.8
2023-03-06T08:18:03.550Z,690.3
2023-03-06T08:19:06.177Z,690.7
2023-03-06T08:20:08.710Z,690.7
2023-03-06T08:21:10.972Z,690.9
2023-03-06T08:22:13.534Z,690.9
2023-03-06T08:23:16.048Z,690.7
2023-03-06T08:24:18.371Z,690.5
2023-03-06T08:25:20.670Z,690.8
2023-03-06T08:26:23.223Z,690.5
2023-03-06T08:27:25.475Z,689.8
2023-03-06T08:28:27.758Z,690.5
2023-03-06T08:29:32.935Z,690
2023-03-06T08:30:35.475Z,689.7
2023-03-06T08:31:38.328Z,689.5
2023-03-06T08:32:41.528Z,689.3
2023-03-06T08:33:43.523Z,689.4
2023-03-06T08:34:45.866Z,689.4
2023-03-06T08:35:48.602Z,689.4
2023-03-06T08:36:50.846Z,689.6
2023-03-06T08:37:53.353Z,689.4
2023-03-06T08:38:55.594Z,689.6
2023-03-06T08:39:58.128Z,689.3
2023-03-06T08:41:00.412Z,689.1
2023-03-06T08:42:02.964Z,689.7
2023-03-06T08:43:05.536Z,689.7
2023-03-06T08:44:08.101Z,689.6
2023-03-06T08:45:10.642Z,689.3
2023-03-06T08:46:12.917Z,689.2
2023-03-06T08:47:14.992Z,689.1
2023-03-06T08:48:17.541Z,689.1
2023-03-06T08:49:20.065Z,688.8
2023-03-06T08:50:22.868Z,689
2023-03-06T08:51:25.555Z,688.6
2023-03-06T08:52:27.817Z,688.4
2023-03-06T08:54:35.033Z,688.6
2023-03-06T08:55:37.255Z,688.2
2023-03-06T08:56:39.226Z,688.6
2023-03-06T08:57:41.177Z,688.2
2023-03-06T08:58:43.405Z,688.6
2023-03-06T08:59:45.739Z,687.8
2023-03-06T09:00:48.762Z,688.1
2023-03-06T09:01:51.053Z,688.2
2023-03-06T09:02:53.338Z,688.7
2023-03-06T09:03:55.873Z,688.5
2023-03-06T09:04:58.431Z,688.7
2023-03-06T09:06:01.134Z,689.1
2023-03-06T09:07:03.424Z,688.6
2023-03-06T09:08:05.939Z,689.1
2023-03-06T09:09:07.976Z,688.5
2023-03-06T09:10:10.628Z,688.8
2023-03-06T09:11:13.203Z,688.4
2023-03-06T09:12:15.748Z,688.5
2023-03-06T09:13:18.042Z,688.6
2023-03-06T09:14:20.312Z,688.7
2023-03-06T09:15:22.668Z,688.5
2023-03-06T09:16:25.238Z,688.5
2023-03-06T09:17:27.786Z,688.8
2023-03-06T09:18:30.328Z,688.6
2023-03-06T09:19:32.082Z,688.5
2023-03-06T09:20:34.591Z,688.6
2023-03-06T09:21:37.357Z,688.6
2023-03-06T09:22:39.617Z,688.4
2023-03-06T09:23:41.858Z,688.5
2023-03-06T09:24:44.158Z,688.6
2023-03-06T09:25:46.705Z,688.3
2023-03-06T09:28:58.633Z,688.3
2023-03-06T09:30:00.644Z,688.3
2023-03-06T09:31:03.269Z,688.6
2023-03-06T09:32:06.213Z,688.1
2023-03-06T09:33:08.528Z,688.4
2023-03-06T09:34:11.069Z,688.2
2023-03-06T09:35:13.599Z,688
2023-03-06T09:36:15.563Z,688.2
2023-03-06T09:37:19.256Z,688.2
2023-03-06T09:38:21.829Z,688.3
2023-03-06T09:39:24.431Z,688.5
2023-03-06T09:40:26.448Z,688.3
2023-03-06T09:41:28.698Z,688.2
2023-03-06T09:42:30.913Z,688
2023-03-06T09:43:33.168Z,688.3
2023-03-06T09:44:35.408Z,688.1
2023-03-06T09:45:37.950Z,688.1
2023-03-06T09:46:40.477Z,688.3
2023-03-06T09:47:42.846Z,688.1
2023-03-06T09:48:45.107Z,688.4
2023-03-06T09:49:47.634Z,688.3
2023-03-06T09:50:49.602Z,688
2023-03-06T09:51:51.608Z,688.1
2023-03-06T09:52:54.377Z,687.8
2023-03-06T09:53:56.921Z,688.3
2023-03-06T09:54:59.224Z,688
2023-03-06T09:56:01.770Z,688
2023-03-06T09:57:04.292Z,688.2
2023-03-06T09:59:11.754Z,687.7
2023-03-06T10:00:14.018Z,687.8
2023-03-06T10:01:16.558Z,687.9
2023-03-06T10:02:19.437Z,688
2023-03-06T10:03:22.474Z,688.5
2023-03-06T10:04:25.035Z,688.7
2023-03-06T10:05:27.280Z,688.7
2023-03-06T10:06:29.491Z,688.8
2023-03-06T10:07:31.759Z,688.4
2023-03-06T10:08:34.413Z,688.7
2023-03-06T10:09:36.930Z,688.6
2023-03-06T10:10:39.047Z,688.3
2023-03-06T10:11:41.554Z,688.1
2023-03-06T10:12:44.108Z,688.5
2023-03-06T10:13:46.660Z,688
2023-03-06T10:14:51.317Z,688.1
2023-03-06T10:15:53.493Z,688.6
2023-03-06T10:16:55.773Z,688.7
2023-03-06T10:17:58.296Z,688.6
2023-03-06T10:19:00.850Z,688.7
2023-03-06T10:20:03.114Z,688.3
2023-03-06T10:22:10.394Z,688.5
2023-03-06T10:23:13.749Z,688.1
2023-03-06T10:24:16.396Z,688.2
2023-03-06T10:25:18.907Z,688.7
2023-03-06T10:26:21.612Z,688.6
2023-03-06T10:27:24.390Z,688.2
2023-03-06T10:28:26.950Z,688.7
2023-03-06T10:29:29.224Z,688.6
2023-03-06T10:30:31.754Z,689.1
2023-03-06T10:31:34.601Z,689
2023-03-06T10:33:41.826Z,689.5
2023-03-06T10:34:44.418Z,689.2
2023-03-06T10:35:47.046Z,689.2
2023-03-06T10:36:49.347Z,689.1
2023-03-06T10:37:51.595Z,689.3
2023-03-06T10:38:53.566Z,689.5
2023-03-06T10:39:56.402Z,689.3
2023-03-06T10:40:58.942Z,689.4
2023-03-06T10:42:00.908Z,689.4
2023-03-06T10:44:08.458Z,689.4
2023-03-06T10:45:10.494Z,689.7
2023-03-06T10:46:13.215Z,689.7
2023-03-06T10:47:15.473Z,689.9
2023-03-06T10:48:17.974Z,689.4
2023-03-06T10:49:20.515Z,689.9
2023-03-06T10:50:23.256Z,689.9
2023-03-06T10:51:25.796Z,690.1
2023-03-06T10:52:28.322Z,690.1
2023-03-06T10:53:30.854Z,690.4
2023-03-06T10:54:33.150Z,689.6
2023-03-06T10:55:35.814Z,689.9
2023-03-06T10:56:38.343Z,690
2023-03-06T10:57:40.917Z,690.1
2023-03-06T10:58:43.450Z,689.9
2023-03-06T10:59:45.983Z,689.9
2023-03-06T11:00:48.251Z,689.9
2023-03-06T11:01:50.351Z,690.1
2023-03-06T11:02:52.915Z,690.1
2023-03-06T11:03:55.449Z,689.7
2023-03-06T11:04:58.165Z,690.4
2023-03-06T11:06:00.744Z,690.2
2023-03-06T11:07:02.986Z,690.1
2023-03-06T11:08:05.209Z,690.2
2023-03-06T11:09:07.719Z,690.6
2023-03-06T11:10:09.956Z,690.2
2023-03-06T11:11:12.607Z,690.4
2023-03-06T11:12:15.130Z,690.7
2023-03-06T11:13:17.639Z,690.9
2023-03-06T11:14:19.904Z,691.3
2023-03-06T11:15:22.271Z,691.2
2023-03-06T11:17:29.788Z,691.8
2023-03-06T11:18:32.304Z,692.1
2023-03-06T11:19:34.564Z,692.3
2023-03-06T11:21:42.106Z,692.1
2023-03-06T11:22:44.614Z,692.6
2023-03-06T11:23:46.941Z,692.5
2023-03-06T11:24:49.489Z,692.3
2023-03-06T11:25:51.736Z,692.5
2023-03-06T11:26:54.470Z,691.8
2023-03-06T11:27:56.458Z,691.9
2023-03-06T11:28:59.193Z,691.7
2023-03-06T11:30:01.187Z,691.4
2023-03-06T11:31:03.766Z,691.5
2023-03-06T11:32:06.312Z,691.7
2023-03-06T11:33:08.933Z,691.4
2023-03-06T11:34:11.207Z,691.3
2023-03-06T11:35:13.562Z,691.1
2023-03-06T11:36:16.117Z,690.6
2023-03-06T11:37:18.407Z,691.1
2023-03-06T11:38:20.945Z,691.3
2023-03-06T11:39:23.488Z,691.2
2023-03-06T11:40:25.753Z,690.8
2023-03-06T11:41:28.298Z,690.4
2023-03-06T11:42:31.124Z,690.1
2023-03-06T11:43:33.081Z,690.6
2023-03-06T11:44:35.057Z,690.5
2023-03-06T11:45:37.347Z,690.3
2023-03-06T11:46:39.999Z,690.3
2023-03-06T11:47:42.507Z,690.7
2023-03-06T11:48:45.045Z,690.1
2023-03-06T11:49:47.283Z,690.7
2023-03-06T11:50:49.531Z,691.3
2023-03-06T11:51:52.090Z,691.3
2023-03-06T11:52:54.359Z,691.1
2023-03-06T11:53:56.606Z,691.5
2023-03-06T11:54:58.589Z,691.6
2023-03-06T11:56:00.883Z,691.2
2023-03-06T11:57:03.154Z,691.4
2023-03-06T11:58:05.835Z,691.1
2023-03-06T11:59:08.123Z,691.7
2023-03-06T12:00:10.366Z,691.3
2023-03-06T12:01:12.637Z,691.1
2023-03-06T12:02:15.585Z,691.3
2023-03-06T12:03:17.654Z,691.5
2023-03-06T12:04:19.885Z,691.3
2023-03-06T12:05:22.297Z,691.5
2023-03-06T12:06:24.844Z,691.1
2023-03-06T12:07:27.102Z,691.4
2023-03-06T12:08:29.373Z,691.7
2023-03-06T12:09:31.896Z,691.8
2023-03-06T12:10:34.125Z,692
2023-03-06T12:11:36.735Z,692.1
2023-03-06T12:12:38.996Z,692.2
2023-03-06T12:13:41.623Z,692.5
2023-03-06T12:14:43.642Z,692
2023-03-06T12:15:46.173Z,692.7
2023-03-06T12:16:49.017Z,692.5
2023-03-06T12:17:51.266Z,692.2
2023-03-06T12:18:53.529Z,692.7
2023-03-06T12:19:55.807Z,692.9
2023-03-06T12:20:58.371Z,692.9
2023-03-06T12:22:00.792Z,693.1
2023-03-06T12:24:08.326Z,693
2023-03-06T12:25:10.869Z,692.6
2023-03-06T12:26:13.115Z,692.3
2023-03-06T12:27:15.398Z,693.1
2023-03-06T12:28:17.913Z,692.8
2023-03-06T12:29:20.767Z,692.8
2023-03-06T12:30:23.047Z,693.6
2023-03-06T12:31:26.130Z,693.4
2023-03-06T12:32:28.793Z,693.4
2023-03-06T12:33:31.143Z,693.4
2023-03-06T12:34:33.732Z,693.2
2023-03-06T12:35:36.612Z,693.5
2023-03-06T12:36:38.894Z,693.4
2023-03-06T12:37:41.411Z,693.7
2023-03-06T12:38:43.923Z,693.7
2023-03-06T12:39:46.686Z,693.7
2023-03-06T12:40:49.236Z,694
2023-03-06T12:41:51.630Z,694.4
2023-03-06T12:42:54.148Z,694.3
2023-03-06T12:43:56.402Z,694.2
2023-03-06T12:44:58.800Z,694.3
2023-03-06T12:46:01.363Z,694.2
2023-03-06T12:47:03.925Z,694
2023-03-06T12:48:05.600Z,694
2023-03-06T12:49:08.093Z,693.9
2023-03-06T12:50:10.342Z,693.6
2023-03-06T12:51:12.867Z,694
2023-03-06T12:53:20.289Z,693.5
2023-03-06T12:54:22.799Z,693.8
2023-03-06T12:56:30.040Z,693.4
2023-03-06T12:57:32.568Z,694.1
2023-03-06T12:58:35.105Z,693.8
2023-03-06T12:59:37.700Z,693.6
2023-03-06T13:00:40.059Z,694
2023-03-06T13:01:42.808Z,693.8
2023-03-06T13:02:45.488Z,694.3
2023-03-06T13:03:47.804Z,694.2
2023-03-06T13:04:49.776Z,694.4
2023-03-06T13:05:51.794Z,694.8
2023-03-06T13:06:54.494Z,694.5
2023-03-06T13:07:57.045Z,694.3
2023-03-06T13:08:59.578Z,693.7
2023-03-06T13:10:02.142Z,694.5
2023-03-06T13:11:04.684Z,694
2023-03-06T13:12:07.254Z,694.1
2023-03-06T13:13:09.776Z,694.7
2023-03-06T13:14:12.284Z,694.2
2023-03-06T13:15:14.511Z,694
2023-03-06T13:16:17.349Z,694.2
2023-03-06T13:17:19.617Z,694.2
2023-03-06T13:18:22.217Z,694.1
2023-03-06T13:19:24.537Z,693.8
2023-03-06T13:20:27.124Z,694.1
2023-03-06T13:21:29.733Z,694.3
2023-03-06T13:22:31.976Z,694.2
2023-03-06T13:23:34.645Z,694.2
2023-03-06T13:24:37.293Z,695
2023-03-06T13:26:44.529Z,694.6
2023-03-06T13:27:46.802Z,694.5
2023-03-06T13:28:49.070Z,694.6
2023-03-06T13:29:51.321Z,694.4
2023-03-06T13:30:55.424Z,694.7
2023-03-06T13:31:58.168Z,694.5
2023-03-06T13:33:00.405Z,694.4
2023-03-06T13:34:02.761Z,694
2023-03-06T13:35:04.835Z,694
2023-03-06T13:36:06.817Z,694.6
2023-03-06T13:37:09.042Z,694.1
2023-03-06T13:38:11.585Z,694.9
2023-03-06T13:39:14.148Z,694.6
2023-03-06T13:40:16.415Z,694.8
2023-03-06T13:41:18.655Z,694.8
2023-03-06T13:42:21.245Z,695.1
2023-03-06T13:43:23.532Z,695.2
2023-03-06T13:44:26.216Z,695.3
2023-03-06T13:45:28.478Z,694.8
2023-03-06T13:46:31.052Z,694.9
2023-03-06T13:47:37.471Z,694.9
2023-03-06T13:49:46.191Z,695.1